createdAt,value
2017-09-25T00:01:13.908Z,18.60
2017-09-25T00:03:45.016Z,19.97
2017-09-25T00:06:16.125Z,18.33
2017-09-25T00:08:47.501Z,19.17
2017-09-25T00:11:18.612Z,18.17
2017-09-25T00:13:49.688Z,19.60
2017-09-25T00:16:21.091Z,20.37
2017-09-25T00:18:52.196Z,21.70
2017-09-25T00:21:23.273Z,20.70
2017-09-25T00:23:54.698Z,22.10
2017-09-25T00:26:25.940Z,22.30
2017-09-25T00:28:57.238Z,23.83
2017-09-25T00:31:28.376Z,22.73
2017-09-25T00:33:59.779Z,22.90
2017-09-25T00:36:32.421Z,22.67
2017-09-25T00:39:03.997Z,21.83
2017-09-25T00:41:37.270Z,21.73
2017-09-25T00:44:08.343Z,22.87
2017-09-25T00:46:40.392Z,22.10
2017-09-25T00:49:12.780Z,22.47
2017-09-25T00:51:44.017Z,22.43
2017-09-25T00:54:15.204Z,22.30
2017-09-25T00:56:46.493Z,21.90
2017-09-25T00:59:26.455Z,24.33
2017-09-25T01:02:06.541Z,24.07
2017-09-25T01:04:46.846Z,26.70
2017-09-25T01:07:17.970Z,27.53
2017-09-25T01:09:49.409Z,29.10
2017-09-25T01:12:20.914Z,30.33
2017-09-25T01:14:52.315Z,30.20
2017-09-25T01:17:23.349Z,30.20
2017-09-25T01:19:54.541Z,30.00
2017-09-25T01:22:25.648Z,29.00
2017-09-25T01:24:56.787Z,26.43
2017-09-25T01:27:27.875Z,25.63
2017-09-25T01:29:59.235Z,25.20
2017-09-25T01:32:31.195Z,26.37
2017-09-25T01:35:03.107Z,29.83
2017-09-25T01:37:36.544Z,29.80
2017-09-25T01:40:07.668Z,29.83
2017-09-25T01:42:38.900Z,29.90
2017-09-25T01:45:10.263Z,27.00
2017-09-25T01:47:42.699Z,25.57
2017-09-25T01:50:14.742Z,23.03
2017-09-25T01:52:49.471Z,22.40
2017-09-25T01:55:20.644Z,22.93
2017-09-25T01:57:51.743Z,20.93
2017-09-25T02:00:23.138Z,22.23
2017-09-25T02:02:54.237Z,23.13
2017-09-25T02:05:25.336Z,24.17
2017-09-25T02:07:56.463Z,23.93
2017-09-25T02:10:27.605Z,23.40
2017-09-25T02:12:58.708Z,24.63
2017-09-25T02:15:30.083Z,24.97
2017-09-25T02:18:01.297Z,78.17
2017-09-25T02:20:33.992Z,45.43
2017-09-25T02:23:05.194Z,28.60
2017-09-25T02:25:36.462Z,28.57
2017-09-25T02:28:07.529Z,27.40
2017-09-25T02:30:39.459Z,27.60
2017-09-25T02:33:10.882Z,28.27
2017-09-25T02:35:42.048Z,29.03
2017-09-25T02:38:13.425Z,28.27
2017-09-25T02:40:44.595Z,30.67
2017-09-25T02:43:15.634Z,31.17
2017-09-25T02:45:47.974Z,32.73
2017-09-25T02:48:19.136Z,30.67
2017-09-25T02:50:50.217Z,31.67
2017-09-25T02:53:21.405Z,30.60
2017-09-25T02:55:52.508Z,30.50
2017-09-25T02:58:24.880Z,29.87
2017-09-25T03:00:55.931Z,29.60
2017-09-25T03:03:27.310Z,30.33
2017-09-25T03:05:58.448Z,31.70
2017-09-25T03:08:29.521Z,33.67
2017-09-25T03:11:00.907Z,31.77
2017-09-25T03:13:32.410Z,32.90
2017-09-25T03:16:04.008Z,34.87
2017-09-25T03:18:38.272Z,35.03
2017-09-25T03:21:09.350Z,34.63
2017-09-25T03:28:18.150Z,33.67
2017-09-25T03:30:49.315Z,34.70
2017-09-25T03:33:20.389Z,35.90
2017-09-25T03:35:52.243Z,34.63
2017-09-25T03:38:23.686Z,33.73
2017-09-25T03:40:54.911Z,34.43
2017-09-25T03:43:26.335Z,34.83
2017-09-25T03:45:57.896Z,35.87
2017-09-25T03:48:29.084Z,33.90
2017-09-25T03:51:00.240Z,37.93
2017-09-25T03:53:32.302Z,36.83
2017-09-25T03:56:04.642Z,37.30
2017-09-25T03:58:37.505Z,37.20
2017-09-25T04:01:08.896Z,35.40
2017-09-25T04:03:40.048Z,36.93
2017-09-25T04:06:11.155Z,38.43
2017-09-25T04:08:42.299Z,37.83
2017-09-25T04:11:13.371Z,37.53
2017-09-25T04:13:44.739Z,37.80
2017-09-25T04:16:16.018Z,36.97
2017-09-25T04:18:47.134Z,36.50
2017-09-25T04:21:18.485Z,36.90
2017-09-25T04:23:49.556Z,34.60
2017-09-25T04:26:20.638Z,36.13
2017-09-25T04:28:51.767Z,36.20
2017-09-25T04:31:23.136Z,34.00
2017-09-25T04:33:54.886Z,34.00
2017-09-25T04:36:26.006Z,32.80
2017-09-25T04:38:57.047Z,33.90
2017-09-25T04:41:28.203Z,33.40
2017-09-25T04:43:59.636Z,34.70
2017-09-25T04:46:30.848Z,36.83
2017-09-25T04:49:02.400Z,39.37
2017-09-25T04:51:36.796Z,36.50
2017-09-25T04:54:08.161Z,35.83
2017-09-25T04:56:41.621Z,41.57
2017-09-25T04:59:12.881Z,38.63
2017-09-25T05:01:44.038Z,37.47
2017-09-25T05:04:15.524Z,35.23
2017-09-25T05:06:46.679Z,35.03
2017-09-25T05:09:17.781Z,35.10
2017-09-25T05:11:49.164Z,34.63
2017-09-25T05:14:20.283Z,33.93
2017-09-25T05:16:51.352Z,34.50
2017-09-25T05:19:22.770Z,38.03
2017-09-25T05:21:53.922Z,35.10
2017-09-25T05:24:25.094Z,36.23
2017-09-25T05:26:56.491Z,36.47
2017-09-25T05:29:27.686Z,34.67
2017-09-25T05:31:58.764Z,33.73
2017-09-25T05:34:30.238Z,33.13
2017-09-25T05:37:01.763Z,30.87
2017-09-25T05:39:32.956Z,31.20
2017-09-25T05:42:05.160Z,31.03
2017-09-25T05:44:37.798Z,30.83
2017-09-25T05:47:09.429Z,30.20
2017-09-25T05:49:41.396Z,32.50
2017-09-25T05:52:12.502Z,31.60
2017-09-25T05:54:43.901Z,27.40
2017-09-25T05:57:15.343Z,28.00
2017-09-25T05:59:46.730Z,27.17
2017-09-25T06:02:18.009Z,27.87
2017-09-25T06:04:49.367Z,28.30
2017-09-25T06:07:20.452Z,28.60
2017-09-25T06:09:51.543Z,27.33
2017-09-25T06:12:53.371Z,25.60
2017-09-25T06:15:25.005Z,27.47
2017-09-25T06:17:56.420Z,26.47
2017-09-25T06:20:27.563Z,27.20
2017-09-25T06:22:58.801Z,25.67
2017-09-25T06:25:30.175Z,27.33
2017-09-25T06:28:02.192Z,29.17
2017-09-25T06:30:34.582Z,29.37
2017-09-25T06:33:06.077Z,33.30
2017-09-25T06:35:38.267Z,31.77
2017-09-25T06:38:09.681Z,31.97
2017-09-25T06:40:40.907Z,31.00
2017-09-25T06:43:12.032Z,28.40
2017-09-25T06:45:43.429Z,27.10
2017-09-25T06:48:14.654Z,26.73
2017-09-25T06:50:45.755Z,32.00
2017-09-25T06:53:17.291Z,26.20
2017-09-25T06:55:48.713Z,24.67
2017-09-25T06:58:20.152Z,24.00
2017-09-25T07:00:51.396Z,22.50
2017-09-25T07:03:22.698Z,22.70
2017-09-25T07:05:54.386Z,23.93
2017-09-25T07:08:25.625Z,25.67
2017-09-25T07:10:56.860Z,23.30
2017-09-25T07:13:28.293Z,24.90
2017-09-25T07:15:59.589Z,25.90
2017-09-25T07:18:30.693Z,26.20
2017-09-25T07:21:02.031Z,23.77
2017-09-25T07:23:35.518Z,22.97
2017-09-25T07:26:11.445Z,23.50
2017-09-25T07:28:42.821Z,21.70
2017-09-25T07:31:14.216Z,19.50
2017-09-25T07:33:45.296Z,21.83
2017-09-25T07:36:18.205Z,19.80
2017-09-25T07:38:49.536Z,19.40
2017-09-25T07:41:20.593Z,18.43
2017-09-25T07:43:52.000Z,19.07
2017-09-25T07:46:23.088Z,18.57
2017-09-25T07:48:54.444Z,20.27
2017-09-25T07:51:26.554Z,19.97
2017-09-25T07:53:57.800Z,19.10
2017-09-25T07:56:29.307Z,22.87
2017-09-25T07:59:00.604Z,23.93
2017-09-25T08:01:31.935Z,23.23
2017-09-25T08:04:04.281Z,24.60
2017-09-25T08:06:38.053Z,27.70
2017-09-25T08:09:11.727Z,26.67
2017-09-25T08:11:42.957Z,26.07
2017-09-25T08:14:14.407Z,23.03
2017-09-25T08:16:45.790Z,24.23
2017-09-25T08:19:17.151Z,22.60
2017-09-25T08:21:49.093Z,24.10
2017-09-25T08:24:20.342Z,23.60
2017-09-25T08:26:51.792Z,23.10
2017-09-25T08:29:23.203Z,22.03
2017-09-25T08:31:54.502Z,20.30
2017-09-25T08:34:25.576Z,20.10
2017-09-25T08:36:56.998Z,19.57
2017-09-25T08:39:30.531Z,20.87
2017-09-25T08:42:02.560Z,20.77
2017-09-25T08:44:36.615Z,21.07
2017-09-25T08:47:10.775Z,20.87
2017-09-25T08:49:42.589Z,21.20
2017-09-25T08:52:16.328Z,20.47
2017-09-25T08:54:47.502Z,20.27
2017-09-25T08:57:18.936Z,17.60
2017-09-25T08:59:50.716Z,19.00
2017-09-25T09:02:23.645Z,18.03
2017-09-25T09:04:54.739Z,15.27
2017-09-25T09:07:26.094Z,16.33
2017-09-25T09:10:00.574Z,14.30
2017-09-25T09:12:32.983Z,14.27
2017-09-25T09:15:07.260Z,12.87
2017-09-25T09:17:40.985Z,14.07
2017-09-25T09:20:12.072Z,14.63
2017-09-25T09:22:43.457Z,14.37
2017-09-25T09:25:14.586Z,13.73
2017-09-25T09:27:45.654Z,13.20
2017-09-25T09:30:17.416Z,14.37
2017-09-25T09:32:48.621Z,16.70
2017-09-25T09:35:19.792Z,16.60
2017-09-25T09:37:51.211Z,21.23
2017-09-25T09:40:22.359Z,34.53
2017-09-25T09:42:53.570Z,18.43
2017-09-25T09:45:25.261Z,13.73
2017-09-25T09:47:56.386Z,20.43
2017-09-25T09:50:27.844Z,18.53
2017-09-25T09:52:58.943Z,7.90
2017-09-25T09:55:30.075Z,14.63
2017-09-25T09:58:01.831Z,7.20
2017-09-25T10:00:32.978Z,7.43
2017-09-25T10:03:04.694Z,9.93
2017-09-25T10:05:39.521Z,9.93
2017-09-25T10:08:10.616Z,12.03
2017-09-25T10:10:41.965Z,8.80
2017-09-25T10:13:13.459Z,8.23
2017-09-25T10:15:44.572Z,7.40
2017-09-25T10:18:15.732Z,6.97
2017-09-25T10:20:47.294Z,8.40
2017-09-25T10:23:18.453Z,6.20
2017-09-25T10:25:49.569Z,7.30
2017-09-25T10:28:21.118Z,7.17
2017-09-25T10:30:54.841Z,10.73
2017-09-25T10:33:26.148Z,10.37
2017-09-25T10:35:57.582Z,7.87
2017-09-25T10:38:28.841Z,9.83
2017-09-25T10:40:59.926Z,8.57
2017-09-25T10:43:31.437Z,5.53
2017-09-25T10:46:04.531Z,7.13
2017-09-25T10:48:37.438Z,7.67
2017-09-25T10:51:10.083Z,7.00
2017-09-25T10:53:41.178Z,6.63
2017-09-25T10:56:12.313Z,5.80
2017-09-25T10:58:43.848Z,5.33
2017-09-25T11:01:14.934Z,5.47
2017-09-25T11:03:46.040Z,5.00
2017-09-25T11:06:17.481Z,5.90
2017-09-25T11:08:48.607Z,5.70
2017-09-25T11:11:19.704Z,6.85
2017-09-25T11:13:51.132Z,5.90
2017-09-25T11:16:22.311Z,6.70
2017-09-25T11:18:53.431Z,4.40
2017-09-25T11:21:26.000Z,5.73
2017-09-25T11:23:57.306Z,5.13
2017-09-25T11:26:29.169Z,5.68
2017-09-25T11:29:00.891Z,3.57
2017-09-25T11:31:31.994Z,4.50
2017-09-25T11:34:11.257Z,3.73
2017-09-25T11:36:43.155Z,4.50
2017-09-25T11:39:14.316Z,4.33
2017-09-25T11:41:45.518Z,4.27
2017-09-25T11:44:16.957Z,4.80
2017-09-25T11:46:48.026Z,4.43
2017-09-25T11:49:19.541Z,4.85
2017-09-25T11:51:50.939Z,4.82
2017-09-25T11:54:22.449Z,4.35
2017-09-25T11:56:53.543Z,4.25
2017-09-25T11:59:24.976Z,4.32
2017-09-25T12:01:56.109Z,4.20
2017-09-25T12:04:28.135Z,3.80
2017-09-25T12:07:01.392Z,4.05
2017-09-25T12:09:32.538Z,3.78
2017-09-25T12:12:04.343Z,4.28
2017-09-25T12:14:42.244Z,4.90
2017-09-25T12:17:38.736Z,4.30
2017-09-25T12:20:21.295Z,4.80
2017-09-25T12:22:52.443Z,4.70
2017-09-25T12:25:24.789Z,4.13
2017-09-25T12:27:56.136Z,5.70
2017-09-25T12:30:27.369Z,4.77
2017-09-25T12:32:58.732Z,5.60
2017-09-25T12:35:29.886Z,7.23
2017-09-25T12:38:01.328Z,6.57
2017-09-25T12:40:32.848Z,5.87
2017-09-25T12:43:04.609Z,5.60
2017-09-25T12:45:36.508Z,6.33
2017-09-25T12:48:07.913Z,5.80
2017-09-25T12:50:41.403Z,5.57
2017-09-25T12:53:12.455Z,5.77
2017-09-25T12:55:43.795Z,4.70
2017-09-25T12:58:14.873Z,4.30
2017-09-25T13:00:45.940Z,5.10
2017-09-25T13:03:17.376Z,4.90
2017-09-25T13:05:48.659Z,4.80
2017-09-25T13:08:19.749Z,4.20
2017-09-25T13:10:52.328Z,4.37
2017-09-25T13:13:24.560Z,4.23
2017-09-25T13:15:56.049Z,4.50
2017-09-25T13:18:27.132Z,4.03
2017-09-25T13:23:54.252Z,4.90
2017-09-25T13:26:25.625Z,5.33
2017-09-25T13:28:56.694Z,6.10
2017-09-25T13:31:28.013Z,4.87
2017-09-25T13:33:59.345Z,5.70
2017-09-25T13:36:30.541Z,4.90
2017-09-25T13:39:02.592Z,5.20
2017-09-25T13:41:33.677Z,5.00
2017-09-25T13:44:05.330Z,6.13
2017-09-25T13:46:37.697Z,6.00
2017-09-25T13:49:08.791Z,5.60
2017-09-25T13:51:39.904Z,6.70
2017-09-25T13:54:11.267Z,6.80
2017-09-25T13:56:42.362Z,5.83
2017-09-25T14:04:29.048Z,6.47
2017-09-25T14:07:00.412Z,6.30
2017-09-25T14:09:32.073Z,5.10
2017-09-25T14:12:05.804Z,4.90
2017-09-25T14:14:37.354Z,5.17
2017-09-25T14:17:08.700Z,4.90
2017-09-25T14:20:42.254Z,5.13
2017-09-25T14:23:13.637Z,6.43
2017-09-25T14:25:44.726Z,4.77
2017-09-25T14:28:16.360Z,4.13
2017-09-25T14:30:49.237Z,4.37
2017-09-25T14:33:20.885Z,4.67
2017-09-25T14:35:53.396Z,4.50
2017-09-25T14:38:24.808Z,5.67
2017-09-25T14:40:56.265Z,4.77
2017-09-25T14:43:28.388Z,5.00
2017-09-25T14:45:59.598Z,4.73
2017-09-25T14:48:32.291Z,4.77
2017-09-25T14:51:04.044Z,4.30
2017-09-25T14:53:35.519Z,5.03
2017-09-25T14:56:08.104Z,4.77
2017-09-25T14:58:39.206Z,5.60
2017-09-25T15:01:13.780Z,4.63
2017-09-25T15:03:45.209Z,4.50
2017-09-25T15:06:16.600Z,5.60
2017-09-25T15:08:51.751Z,4.77
2017-09-25T15:11:23.087Z,4.00
2017-09-25T15:13:54.961Z,4.70
2017-09-25T15:16:26.079Z,4.80
2017-09-25T15:18:57.407Z,4.67
2017-09-25T15:21:31.321Z,4.60
2017-09-25T15:24:08.571Z,4.20
2017-09-25T15:26:44.062Z,4.00
2017-09-25T15:29:16.348Z,4.33
2017-09-25T15:31:50.643Z,4.37
2017-09-25T15:34:21.777Z,4.93
2017-09-25T15:36:53.260Z,4.70
2017-09-25T15:39:25.518Z,4.60
2017-09-25T15:41:56.667Z,4.97
2017-09-25T15:44:28.112Z,4.83
2017-09-25T15:46:59.327Z,4.10
2017-09-25T15:49:30.389Z,4.90
2017-09-25T15:52:02.417Z,4.50
2017-09-25T15:54:33.559Z,4.60
2017-09-25T15:57:05.346Z,4.90
2017-09-25T15:59:36.531Z,3.80
2017-09-25T16:02:08.847Z,4.07
2017-09-25T16:04:40.100Z,4.17
2017-09-25T16:07:11.164Z,3.13
2017-09-25T16:09:42.699Z,3.93
2017-09-25T16:12:13.797Z,4.20
2017-09-25T16:14:45.213Z,3.30
2017-09-25T16:17:16.577Z,3.10
2017-09-25T16:19:49.542Z,3.60
2017-09-25T16:22:21.016Z,3.40
2017-09-25T16:24:53.246Z,4.17
2017-09-25T16:27:24.334Z,3.70
2017-09-25T16:29:55.433Z,3.93
2017-09-25T16:32:26.861Z,3.13
2017-09-25T16:34:57.956Z,3.30
2017-09-25T16:37:29.049Z,3.40
2017-09-25T16:40:00.459Z,3.77
2017-09-25T16:42:31.593Z,4.20
2017-09-25T16:45:03.179Z,4.10
2017-09-25T16:47:34.556Z,4.20
2017-09-25T16:50:06.003Z,4.20
2017-09-25T16:52:37.100Z,3.60
2017-09-25T16:55:08.541Z,4.23
2017-09-25T16:57:39.678Z,4.63
2017-09-25T17:00:11.113Z,4.27
2017-09-25T17:02:42.786Z,4.43
2017-09-25T17:05:14.208Z,4.40
2017-09-25T17:07:45.306Z,4.30
2017-09-25T17:10:18.149Z,5.00
2017-09-25T17:12:51.396Z,4.37
2017-09-25T17:15:22.960Z,4.60
2017-09-25T17:17:55.597Z,5.40
2017-09-25T17:20:26.922Z,4.73
2017-09-25T17:22:58.345Z,5.20
2017-09-25T17:25:30.177Z,5.33
2017-09-25T17:28:02.392Z,5.50
2017-09-25T17:30:33.780Z,5.70
2017-09-25T17:33:05.282Z,5.00
2017-09-25T17:35:36.853Z,6.20
2017-09-25T17:38:08.779Z,5.13
2017-09-25T17:40:40.168Z,4.73
2017-09-25T17:43:11.796Z,5.03
2017-09-25T17:45:43.457Z,5.50
2017-09-25T17:48:14.795Z,6.30
2017-09-25T17:50:46.873Z,6.70
2017-09-25T17:53:18.275Z,6.17
2017-09-25T17:55:51.180Z,7.10
2017-09-25T17:58:22.934Z,6.33
2017-09-25T18:00:54.562Z,6.90
2017-09-25T18:03:25.964Z,7.10
2017-09-25T18:05:57.708Z,7.73
2017-09-25T18:08:29.114Z,7.37
2017-09-25T18:11:00.973Z,7.17
2017-09-25T18:13:32.395Z,6.93
2017-09-25T18:16:04.721Z,6.87
2017-09-25T18:18:37.209Z,6.70
2017-09-25T18:21:08.696Z,7.00
2017-09-25T18:23:39.942Z,7.10
2017-09-25T18:26:11.561Z,12.20
2017-09-25T18:28:42.958Z,7.83
2017-09-25T18:31:14.598Z,9.77
2017-09-25T18:33:47.784Z,7.80
2017-09-25T18:36:19.322Z,7.40
2017-09-25T18:38:52.443Z,7.17
2017-09-25T18:41:24.131Z,7.70
2017-09-25T18:43:55.617Z,6.77
2017-09-25T18:46:27.092Z,7.73
2017-09-25T18:49:01.278Z,8.07
2017-09-25T18:51:32.948Z,7.43
2017-09-25T18:54:05.656Z,6.53
2017-09-25T18:56:37.403Z,7.13
2017-09-25T18:59:08.697Z,6.40
2017-09-25T19:01:39.991Z,6.03
2017-09-25T19:04:11.766Z,6.90
2017-09-25T19:06:43.254Z,5.63
2017-09-25T19:09:15.100Z,7.07
2017-09-25T19:11:46.236Z,6.53
2017-09-25T19:14:17.328Z,7.80
2017-09-25T19:16:50.591Z,7.37
2017-09-25T19:19:21.723Z,7.37
2017-09-25T19:21:53.611Z,7.60
2017-09-25T19:24:24.752Z,5.90
2017-09-25T19:26:56.095Z,6.93
2017-09-25T19:29:27.525Z,6.43
2017-09-25T19:31:58.612Z,7.97
2017-09-25T19:34:29.728Z,7.40
2017-09-25T19:37:01.358Z,7.13
2017-09-25T19:39:32.790Z,8.33
2017-09-25T19:42:05.379Z,7.77
2017-09-25T19:44:36.814Z,7.00
2017-09-25T19:47:08.031Z,7.20
2017-09-25T19:49:39.504Z,7.30
2017-09-25T19:52:10.832Z,7.50
2017-09-25T19:54:42.023Z,8.40
2017-09-25T19:57:13.580Z,8.43
2017-09-25T19:59:44.767Z,9.37
2017-09-25T20:02:16.080Z,9.37
2017-09-25T20:04:50.649Z,14.17
2017-09-25T20:07:21.908Z,84.90
2017-09-25T20:09:54.606Z,9.77
2017-09-25T20:12:26.118Z,7.87
2017-09-25T20:14:57.378Z,7.90
2017-09-25T20:17:30.000Z,10.83
2017-09-25T20:20:02.043Z,8.77
2017-09-25T20:22:33.662Z,7.80
2017-09-25T20:25:07.818Z,8.80
2017-09-25T20:27:38.906Z,8.77
2017-09-25T20:30:10.483Z,9.10
2017-09-25T20:32:41.541Z,9.03
2017-09-25T20:35:12.883Z,8.33
2017-09-25T20:37:44.081Z,9.53
2017-09-25T20:40:17.007Z,9.50
2017-09-25T20:42:50.420Z,9.70
2017-09-25T20:45:22.219Z,9.73
2017-09-25T20:47:54.411Z,9.80
2017-09-25T20:50:26.525Z,11.30
2017-09-25T20:52:57.769Z,10.80
2017-09-25T20:55:29.176Z,10.87
2017-09-25T20:58:00.269Z,10.13
2017-09-25T21:00:31.407Z,11.27
2017-09-25T21:03:03.529Z,10.93
2017-09-25T21:05:34.708Z,11.07
2017-09-25T21:08:06.212Z,10.20
2017-09-25T21:10:38.012Z,11.80
2017-09-25T21:13:09.319Z,11.50
2017-09-25T21:15:41.107Z,11.90
2017-09-25T21:18:13.907Z,12.43
2017-09-25T21:20:45.065Z,12.10
2017-09-25T21:23:16.509Z,11.20
2017-09-25T21:25:48.605Z,10.63
2017-09-25T21:28:20.282Z,9.80
2017-09-25T21:30:52.634Z,10.53
2017-09-25T21:33:23.736Z,10.70
2017-09-25T21:35:55.261Z,10.97
2017-09-25T21:38:26.351Z,11.07
2017-09-25T21:40:58.822Z,11.00
2017-09-25T21:43:30.630Z,11.50
2017-09-25T21:46:02.794Z,12.40
2017-09-25T21:48:33.920Z,11.07
2017-09-25T21:51:08.099Z,13.40
2017-09-25T21:53:39.270Z,12.57
2017-09-25T21:56:10.696Z,12.33
2017-09-25T21:58:41.837Z,13.13
2017-09-25T22:04:15.404Z,14.07
2017-09-25T22:06:46.650Z,13.83
2017-09-25T22:09:18.288Z,14.37
2017-09-25T22:11:49.420Z,16.80
2017-09-25T22:14:20.732Z,15.70
2017-09-25T22:16:51.849Z,16.07
2017-09-25T22:19:22.923Z,17.87
2017-09-25T22:21:54.371Z,15.57
2017-09-25T22:24:25.470Z,13.77
2017-09-25T22:26:56.536Z,13.67
2017-09-25T22:29:27.595Z,13.70
2017-09-25T22:31:58.627Z,14.23
2017-09-25T22:34:30.743Z,16.50
2017-09-25T22:37:02.442Z,14.80
2017-09-25T22:39:35.516Z,15.77
2017-09-25T22:42:07.101Z,14.80
2017-09-25T22:44:38.599Z,14.83
2017-09-25T22:47:10.000Z,14.70
2017-09-25T22:49:41.560Z,15.20
2017-09-25T22:52:12.824Z,13.97
2017-09-25T22:54:43.993Z,14.40
2017-09-25T22:57:15.420Z,15.47
2017-09-25T22:59:46.599Z,14.00
2017-09-25T23:02:17.776Z,14.17
2017-09-25T23:04:49.338Z,13.37
2017-09-25T23:07:21.009Z,14.00
2017-09-25T23:09:53.312Z,14.83
2017-09-25T23:12:25.216Z,13.70
2017-09-25T23:14:57.018Z,15.43
2017-09-25T23:17:28.103Z,14.47
2017-09-25T23:19:59.467Z,12.73
2017-09-25T23:22:31.073Z,12.60
2017-09-25T23:25:03.193Z,13.20
2017-09-25T23:27:36.220Z,12.93
2017-09-25T23:30:08.440Z,14.03
2017-09-25T23:32:39.638Z,13.07
2017-09-25T23:35:10.719Z,12.00
2017-09-25T23:37:42.153Z,12.67
2017-09-25T23:40:14.021Z,13.00
2017-09-25T23:42:45.071Z,12.97
2017-09-25T23:45:16.939Z,13.97
2017-09-25T23:47:48.068Z,12.53
2017-09-25T23:50:19.477Z,11.80
2017-09-25T23:52:50.804Z,12.10
2017-09-25T23:55:21.885Z,12.20
2017-09-25T23:57:52.936Z,12.67
